Time;durP1;ratioP1;P1;durP2;ratioP2;P2;SDS_P1;SDS_P2;PMS_P1;PMS_P2;Temp;Humidity;BMP_temperature;BMP_pressure;BME280_temperature;BME280_humidity;BME280_pressure;Samples;Min_cycle;Max_cycle;Signal;HPM_P1;HPM_P2
2023/01/28 00:01:15;;;;;;;;;;;3.70;1.00;;;;;;5037251;28;19917;-76
2023/01/28 00:03:41;;;;;;;;;;;3.60;1.00;;;;;;5037098;28;19909;-75
2023/01/28 00:06:19;;;;;;;;;;;3.60;1.00;;;;;;5026495;28;20012;-77
2023/01/28 00:08:45;;;;;;;;;;;3.50;1.00;;;;;;5037145;28;19916;-76
2023/01/28 00:11:21;;;;;;;;;;;3.40;1.00;;;;;;5036805;28;19909;-75
2023/01/28 00:13:51;;;;;;;;;;;3.40;1.00;;;;;;5036870;28;20039;-76
2023/01/28 00:16:21;;;;;;;;;;;3.40;1.00;;;;;;5019031;28;20288;-75
2023/01/28 00:18:55;;;;;;;;;;;3.30;1.00;;;;;;5018880;28;19960;-75
2023/01/28 00:21:21;;;;;;;;;;;3.20;1.00;;;;;;5036915;28;19963;-75
2023/01/28 00:23:49;;;;;;;;;;;3.20;1.00;;;;;;5036884;28;19917;-76
2023/01/28 00:26:14;;;;;;;;;;;3.20;1.00;;;;;;5018647;28;19913;-76
2023/01/28 00:28:40;;;;;;;;;;;3.20;1.00;;;;;;5027673;28;19957;-75
2023/01/28 00:31:08;;;;;;;;;;;3.10;1.00;;;;;;5029271;28;19920;-76
2023/01/28 00:33:37;;;;;;;;;;;3.10;1.00;;;;;;5029436;28;19914;-76
2023/01/28 00:36:20;;;;;;;;;;;3.10;1.00;;;;;;5037427;28;19913;-86
2023/01/28 00:38:50;;;;;;;;;;;3.10;1.00;;;;;;5037131;28;19909;-86
2023/01/28 00:41:20;;;;;;;;;;;3.10;1.00;;;;;;5037031;28;19913;-86
2023/01/28 00:43:49;;;;;;;;;;;3.10;1.00;;;;;;5037427;28;19913;-86
2023/01/28 00:46:20;;;;;;;;;;;3.20;1.00;;;;;;5036920;28;19963;-86
2023/01/28 00:48:55;;;;;;;;;;;3.30;1.00;;;;;;5036880;28;19909;-86
2023/01/28 00:51:25;;;;;;;;;;;3.30;1.00;;;;;;5007149;28;19915;-86
2023/01/28 00:53:55;;;;;;;;;;;3.30;1.00;;;;;;5036731;28;19963;-86
2023/01/28 00:56:25;;;;;;;;;;;3.30;1.00;;;;;;5036798;28;20004;-86
2023/01/28 00:58:55;;;;;;;;;;;3.20;1.00;;;;;;5036453;28;19909;-86
2023/01/28 01:01:31;;;;;;;;;;;3.20;1.00;;;;;;5036962;28;19916;-86
2023/01/28 01:04:01;;;;;;;;;;;3.20;1.00;;;;;;5036444;28;19975;-85
2023/01/28 01:06:34;;;;;;;;;;;3.20;1.00;;;;;;5025343;28;20447;-86
2023/01/28 01:09:31;;;;;;;;;;;3.30;1.00;;;;;;5035800;28;19916;-86
2023/01/28 01:21:07;;;;;;;;;;;3.40;1.00;;;;;;5036437;28;19920;-86
2023/01/28 01:23:50;;;;;;;;;;;3.40;1.00;;;;;;5036104;28;19909;-86
2023/01/28 01:29:18;;;;;;;;;;;3.40;1.00;;;;;;5035856;28;20383;-86
2023/01/28 01:32:07;;;;;;;;;;;3.40;1.00;;;;;;5018393;28;19913;-86
2023/01/28 01:34:33;;;;;;;;;;;3.50;1.00;;;;;;5018429;28;20003;-86
2023/01/28 01:37:31;;;;;;;;;;;3.50;1.00;;;;;;5018778;28;19952;-86
2023/01/28 01:40:08;;;;;;;;;;;3.50;1.00;;;;;;5017259;28;19924;-86
2023/01/28 01:42:37;;;;;;;;;;;3.50;1.00;;;;;;5018283;28;20356;-86
2023/01/28 01:45:05;;;;;;;;;;;3.50;1.00;;;;;;5018017;28;19917;-86
2023/01/28 01:47:37;;;;;;;;;;;3.50;1.00;;;;;;5035899;28;19909;-86
2023/01/28 01:50:27;;;;;;;;;;;3.50;1.00;;;;;;5017866;28;19913;-86
2023/01/28 01:53:03;;;;;;;;;;;3.50;1.00;;;;;;4954553;29;20322;-75
2023/01/28 01:55:30;;;;;;;;;;;3.50;1.00;;;;;;4954939;29;19962;-76
2023/01/28 01:58:10;;;;;;;;;;;3.50;1.00;;;;;;4954652;29;19918;-75
2023/01/28 02:00:56;;;;;;;;;;;3.50;1.00;;;;;;4946194;29;19932;-76
2023/01/28 02:03:28;;;;;;;;;;;3.40;1.00;;;;;;4954229;29;19911;-75
2023/01/28 02:05:55;;;;;;;;;;;3.40;1.00;;;;;;4954959;29;19925;-77
2023/01/28 02:08:26;;;;;;;;;;;3.40;1.00;;;;;;4938343;29;19911;-76
2023/01/28 02:11:01;;;;;;;;;;;3.40;1.00;;;;;;4954272;29;19970;-76
2023/01/28 02:13:29;;;;;;;;;;;3.50;1.00;;;;;;4937917;29;20333;-76
2023/01/28 02:15:57;;;;;;;;;;;3.50;1.00;;;;;;4954533;29;20040;-76
2023/01/28 02:18:25;;;;;;;;;;;3.50;1.00;;;;;;4929339;29;19970;-76
2023/01/28 02:20:58;;;;;;;;;;;3.50;1.00;;;;;;4951337;29;19910;-76
2023/01/28 02:23:40;;;;;;;;;;;3.50;1.00;;;;;;4946569;29;19918;-75
2023/01/28 02:26:17;;;;;;;;;;;3.50;1.00;;;;;;4953859;29;19983;-76
2023/01/28 02:29:07;;;;;;;;;;;3.40;1.00;;;;;;4955467;28;20306;-75
2023/01/28 02:31:37;;;;;;;;;;;3.40;1.00;;;;;;5025417;28;19959;-75
2023/01/28 02:34:12;;;;;;;;;;;3.50;1.00;;;;;;5034164;28;20342;-76
2023/01/28 02:39:59;;;;;;;;;;;3.50;1.00;;;;;;5034582;28;19947;-86
2023/01/28 02:42:43;;;;;;;;;;;3.50;1.00;;;;;;5017167;28;20008;-86
2023/01/28 02:47:56;;;;;;;;;;;3.50;1.00;;;;;;5034378;28;19917;-86
2023/01/28 02:51:36;;;;;;;;;;;3.40;1.00;;;;;;5030417;28;19916;-86
2023/01/28 02:54:11;;;;;;;;;;;3.40;1.00;;;;;;5034576;28;19920;-86
2023/01/28 02:59:55;;;;;;;;;;;3.40;1.00;;;;;;5034027;28;19916;-86
2023/01/28 03:02:37;;;;;;;;;;;3.40;1.00;;;;;;5034720;28;20323;-86
2023/01/28 03:09:21;;;;;;;;;;;3.40;1.00;;;;;;5033986;28;19991;-76
2023/01/28 03:42:56;;;;;;;;;;;3.30;1.00;;;;;;5034312;28;20386;-85
2023/01/28 03:45:21;;;;;;;;;;;3.30;1.00;;;;;;5016160;28;19917;-86
2023/01/28 03:47:55;;;;;;;;;;;3.30;1.00;;;;;;5034302;28;19913;-86
2023/01/28 03:53:24;;;;;;;;;;;3.30;1.00;;;;;;5033715;28;19959;-75
2023/01/28 03:56:17;;;;;;;;;;;3.30;1.00;;;;;;5033545;28;20368;-76
2023/01/28 03:58:51;;;;;;;;;;;3.40;1.00;;;;;;5033300;28;19909;-75
2023/01/28 04:01:17;;;;;;;;;;;3.30;1.00;;;;;;5020539;28;20106;-77
2023/01/28 04:03:43;;;;;;;;;;;3.30;1.00;;;;;;5036692;28;19910;-76
2023/01/28 04:06:09;;;;;;;;;;;3.30;1.00;;;;;;5032022;28;19921;-76
2023/01/28 04:08:37;;;;;;;;;;;3.30;1.00;;;;;;5019236;28;19909;-75
2023/01/28 04:11:18;;;;;;;;;;;3.40;1.00;;;;;;5036501;28;19916;-77
2023/01/28 04:14:07;;;;;;;;;;;3.40;1.00;;;;;;5036719;28;19913;-77
2023/01/28 04:16:38;;;;;;;;;;;3.40;1.00;;;;;;5037218;28;19910;-75
2023/01/28 04:19:03;;;;;;;;;;;3.30;1.00;;;;;;5036948;28;19909;-75
2023/01/28 04:21:29;;;;;;;;;;;3.40;1.00;;;;;;5022980;28;20314;-76
2023/01/28 04:24:01;;;;;;;;;;;3.40;1.00;;;;;;5025158;28;20253;-86
2023/01/28 04:26:43;;;;;;;;;;;3.40;1.00;;;;;;5024405;28;19951;-87
2023/01/28 04:29:25;;;;;;;;;;;3.30;1.00;;;;;;5019725;28;20257;-86
2023/01/28 04:32:01;;;;;;;;;;;3.30;1.00;;;;;;5037289;28;19910;-84
2023/01/28 04:44:07;;;;;;;;;;;3.20;1.00;;;;;;5036924;28;19916;-86
2023/01/28 04:46:37;;;;;;;;;;;3.30;1.00;;;;;;5036944;28;19924;-86
2023/01/28 04:49:07;;;;;;;;;;;3.30;1.00;;;;;;5036937;28;19909;-86
2023/01/28 04:51:33;;;;;;;;;;;3.30;1.00;;;;;;5019138;28;19909;-85
2023/01/28 04:54:01;;;;;;;;;;;3.30;1.00;;;;;;5036481;28;20222;-75
2023/01/28 04:56:27;;;;;;;;;;;3.30;1.00;;;;;;5036271;28;19920;-75
2023/01/28 04:58:55;;;;;;;;;;;3.30;1.00;;;;;;5035720;28;19909;-75
2023/01/28 05:01:31;;;;;;;;;;;3.30;1.00;;;;;;5018318;28;19916;-76
2023/01/28 05:03:58;;;;;;;;;;;3.30;1.00;;;;;;5036033;28;19913;-75
2023/01/28 05:06:25;;;;;;;;;;;3.30;1.00;;;;;;5035840;28;19932;-76
2023/01/28 05:09:07;;;;;;;;;;;3.30;1.00;;;;;;5032379;28;19930;-76
2023/01/28 05:11:37;;;;;;;;;;;3.30;1.00;;;;;;5028605;28;19948;-75
2023/01/28 05:14:14;;;;;;;;;;;3.30;1.00;;;;;;5035160;28;19999;-75
2023/01/28 05:16:43;;;;;;;;;;;3.30;1.00;;;;;;5035738;28;19917;-76
2023/01/28 05:19:13;;;;;;;;;;;3.30;1.00;;;;;;5035828;28;19963;-76
2023/01/28 05:21:43;;;;;;;;;;;3.30;1.00;;;;;;5035542;28;19963;-76
2023/01/28 05:24:25;;;;;;;;;;;3.30;1.00;;;;;;5035911;28;19972;-76
2023/01/28 05:26:51;;;;;;;;;;;3.30;1.00;;;;;;5035416;28;19913;-75
2023/01/28 05:29:19;;;;;;;;;;;3.20;1.00;;;;;;5035920;28;20490;-76
2023/01/28 05:31:46;;;;;;;;;;;3.20;1.00;;;;;;5035354;28;19916;-76
2023/01/28 05:34:19;;;;;;;;;;;3.30;1.00;;;;;;5034640;28;20402;-77
2023/01/28 05:36:45;;;;;;;;;;;3.30;1.00;;;;;;4998056;28;19996;-76
2023/01/28 05:39:13;;;;;;;;;;;3.30;1.00;;;;;;5029863;28;19948;-86
2023/01/28 05:48:01;;;;;;;;;;;3.30;1.00;;;;;;5035527;28;19991;-86
2023/01/28 05:50:32;;;;;;;;;;;3.30;1.00;;;;;;5035570;28;19916;-86
2023/01/28 05:52:57;;;;;;;;;;;3.30;1.00;;;;;;5035840;28;19960;-86
2023/01/28 05:55:25;;;;;;;;;;;3.20;1.00;;;;;;5031393;28;19952;-86
2023/01/28 05:58:29;;;;;;;;;;;3.20;1.00;;;;;;5017791;28;19913;-86
2023/01/28 06:01:13;;;;;;;;;;;3.20;1.00;;;;;;5017637;28;19909;-86
2023/01/28 06:04:13;;;;;;;;;;;3.20;1.00;;;;;;5018008;28;19909;-86
2023/01/28 06:06:49;;;;;;;;;;;3.20;1.00;;;;;;5017821;28;19909;-86
2023/01/28 06:09:15;;;;;;;;;;;3.30;1.00;;;;;;5014323;28;19991;-76
2023/01/28 06:11:44;;;;;;;;;;;3.30;1.00;;;;;;5026992;28;19917;-75
2023/01/28 06:14:10;;;;;;;;;;;3.20;1.00;;;;;;5034921;28;19913;-76
2023/01/28 06:16:44;;;;;;;;;;;3.30;1.00;;;;;;5029513;28;19920;-76
2023/01/28 06:19:13;;;;;;;;;;;3.30;1.00;;;;;;5021681;28;20514;-76
2023/01/28 06:21:39;;;;;;;;;;;3.30;1.00;;;;;;5016549;28;19913;-75
2023/01/28 06:24:07;;;;;;;;;;;3.30;1.00;;;;;;5034598;28;20260;-75
2023/01/28 06:26:37;;;;;;;;;;;3.30;1.00;;;;;;5034350;28;20279;-75
2023/01/28 06:29:03;;;;;;;;;;;3.30;1.00;;;;;;5034803;28;19909;-77
2023/01/28 06:31:31;;;;;;;;;;;3.30;1.00;;;;;;5034341;28;20338;-75
2023/01/28 06:33:57;;;;;;;;;;;3.30;1.00;;;;;;5016892;28;19975;-76
2023/01/28 06:36:32;;;;;;;;;;;3.30;1.00;;;;;;5016626;28;19909;-75
2023/01/28 06:39:01;;;;;;;;;;;3.30;1.00;;;;;;5035313;28;19913;-88
2023/01/28 06:41:43;;;;;;;;;;;3.30;1.00;;;;;;5029146;28;19983;-78
2023/01/28 06:44:21;;;;;;;;;;;3.30;1.00;;;;;;5034291;28;19917;-78
2023/01/28 06:46:46;;;;;;;;;;;3.30;1.00;;;;;;5029406;28;20371;-78
2023/01/28 06:49:14;;;;;;;;;;;3.30;1.00;;;;;;5034051;28;19909;-78
2023/01/28 06:51:39;;;;;;;;;;;3.30;1.00;;;;;;4998834;28;19913;-78
2023/01/28 06:54:14;;;;;;;;;;;3.30;1.00;;;;;;5007027;28;19963;-77
2023/01/28 06:56:43;;;;;;;;;;;3.30;1.00;;;;;;5029545;28;19913;-78
2023/01/28 06:59:13;;;;;;;;;;;3.30;1.00;;;;;;5021839;28;19909;-78
2023/01/28 07:01:43;;;;;;;;;;;3.30;1.00;;;;;;5033486;28;19909;-77
2023/01/28 07:04:19;;;;;;;;;;;3.30;1.00;;;;;;5033555;28;19909;-78
2023/01/28 07:06:49;;;;;;;;;;;3.30;1.00;;;;;;5033737;28;19909;-77
2023/01/28 07:09:19;;;;;;;;;;;3.30;1.00;;;;;;5034093;28;20000;-78
2023/01/28 07:11:45;;;;;;;;;;;3.40;1.00;;;;;;5033890;28;19909;-77
2023/01/28 07:14:25;;;;;;;;;;;3.40;1.00;;;;;;5015925;28;20265;-77
2023/01/28 07:16:56;;;;;;;;;;;3.40;1.00;;;;;;5020575;28;19917;-78
2023/01/28 07:19:25;;;;;;;;;;;3.40;1.00;;;;;;5033259;28;20280;-78
2023/01/28 07:21:59;;;;;;;;;;;3.40;1.00;;;;;;5021807;28;19909;-78
2023/01/28 07:24:26;;;;;;;;;;;3.40;1.00;;;;;;5016249;28;19917;-81
2023/01/28 07:26:51;;;;;;;;;;;3.40;1.00;;;;;;5016135;28;19909;-82
2023/01/28 07:29:20;;;;;;;;;;;3.40;1.00;;;;;;5033817;28;19940;-82
2023/01/28 07:31:50;;;;;;;;;;;3.40;1.00;;;;;;5033996;28;19909;-82
2023/01/28 07:34:19;;;;;;;;;;;3.40;1.00;;;;;;5015747;28;20384;-82
2023/01/28 07:36:49;;;;;;;;;;;3.40;1.00;;;;;;5034550;28;19909;-82
2023/01/28 07:39:31;;;;;;;;;;;3.50;1.00;;;;;;5037907;28;19909;-82
2023/01/28 07:42:08;;;;;;;;;;;3.50;1.00;;;;;;5037589;28;19956;-82
2023/01/28 07:44:55;;;;;;;;;;;3.40;1.00;;;;;;5025819;28;20271;-82
2023/01/28 07:47:25;;;;;;;;;;;3.40;1.00;;;;;;5019555;28;19956;-82
2023/01/28 07:50:08;;;;;;;;;;;3.40;1.00;;;;;;5019652;28;19963;-82
2023/01/28 07:52:43;;;;;;;;;;;3.50;1.00;;;;;;5024562;28;20383;-82
2023/01/28 07:55:34;;;;;;;;;;;3.50;1.00;;;;;;5017575;28;20171;-77
2023/01/28 07:58:02;;;;;;;;;;;3.50;1.00;;;;;;5017215;28;19915;-77
2023/01/28 08:00:33;;;;;;;;;;;3.50;1.00;;;;;;5017484;28;20008;-78
2023/01/28 08:03:01;;;;;;;;;;;3.50;1.00;;;;;;5035502;28;20280;-78
2023/01/28 08:05:47;;;;;;;;;;;3.50;1.00;;;;;;5019303;28;19916;-77
2023/01/28 08:08:28;;;;;;;;;;;3.50;1.00;;;;;;5036990;28;19909;-78
2023/01/28 08:10:55;;;;;;;;;;;3.50;1.00;;;;;;5037147;28;20424;-78
2023/01/28 08:13:43;;;;;;;;;;;3.50;1.00;;;;;;5036642;28;20008;-77
2023/01/28 08:16:19;;;;;;;;;;;3.60;1.00;;;;;;5037062;28;19956;-79
2023/01/28 08:18:50;;;;;;;;;;;3.60;1.00;;;;;;5036913;28;19917;-78
2023/01/28 08:21:25;;;;;;;;;;;3.60;1.00;;;;;;5019009;28;19909;-78
2023/01/28 08:23:55;;;;;;;;;;;3.60;1.00;;;;;;5036513;28;19917;-82
2023/01/28 08:26:55;;;;;;;;;;;3.60;1.00;;;;;;5018980;28;19909;-82
2023/01/28 08:29:26;;;;;;;;;;;3.60;1.00;;;;;;5019155;28;19916;-82
2023/01/28 08:31:55;;;;;;;;;;;3.60;1.00;;;;;;5036813;28;19909;-82
2023/01/28 08:34:25;;;;;;;;;;;3.70;1.00;;;;;;5034392;28;19913;-81
2023/01/28 08:36:55;;;;;;;;;;;3.70;1.00;;;;;;5027355;28;19909;-82
2023/01/28 08:39:26;;;;;;;;;;;3.70;1.00;;;;;;5036805;28;19909;-81
2023/01/28 08:41:55;;;;;;;;;;;3.70;1.00;;;;;;5018399;28;19919;-81
2023/01/28 08:44:55;;;;;;;;;;;3.70;1.00;;;;;;5018690;28;19920;-81
2023/01/28 08:47:25;;;;;;;;;;;3.60;1.00;;;;;;5036481;28;19916;-83
2023/01/28 08:49:51;;;;;;;;;;;3.70;1.00;;;;;;5016818;28;19916;-82
2023/01/28 08:52:19;;;;;;;;;;;3.70;1.00;;;;;;5036084;28;19909;-82
2023/01/28 08:54:56;;;;;;;;;;;3.70;1.00;;;;;;5035845;28;19920;-81
2023/01/28 08:57:21;;;;;;;;;;;3.70;1.00;;;;;;5036288;28;19916;-82
2023/01/28 09:00:09;;;;;;;;;;;3.80;1.00;;;;;;5018277;28;19910;-82
2023/01/28 09:02:38;;;;;;;;;;;3.80;1.00;;;;;;5034874;28;19909;-78
2023/01/28 09:05:08;;;;;;;;;;;3.80;1.00;;;;;;5035495;28;19945;-76
2023/01/28 09:07:34;;;;;;;;;;;3.80;1.00;;;;;;5035856;28;19916;-77
2023/01/28 09:13:14;;;;;;;;;;;3.70;1.00;;;;;;5036245;28;20380;-87
2023/01/28 09:15:44;;;;;;;;;;;3.80;1.00;;;;;;5033406;28;20004;-87
2023/01/28 09:18:13;;;;;;;;;;;3.70;1.00;;;;;;5018991;28;19916;-87
2023/01/28 09:23:44;;;;;;;;;;;3.80;1.00;;;;;;5035912;28;19924;-88
2023/01/28 09:26:26;;;;;;;;;;;3.80;1.00;;;;;;5018580;28;19909;-77
2023/01/28 09:28:56;;;;;;;;;;;3.80;1.00;;;;;;5024681;28;20245;-78
2023/01/28 09:31:22;;;;;;;;;;;3.80;1.00;;;;;;5029304;28;20368;-77
2023/01/28 09:33:55;;;;;;;;;;;3.80;1.00;;;;;;5035623;28;19913;-77
2023/01/28 09:36:25;;;;;;;;;;;3.90;1.00;;;;;;5035594;28;20271;-78
2023/01/28 09:39:08;;;;;;;;;;;4.00;1.00;;;;;;5035193;28;19909;-78
2023/01/28 09:41:50;;;;;;;;;;;4.00;1.00;;;;;;5036045;28;19917;-87
2023/01/28 09:44:19;;;;;;;;;;;4.10;1.00;;;;;;5019085;28;20383;-88
2023/01/28 09:47:00;;;;;;;;;;;4.10;1.00;;;;;;5034090;28;19944;-87
2023/01/28 09:55:34;;;;;;;;;;;4.40;1.00;;;;;;5034480;28;20426;-77
2023/01/28 09:58:04;;;;;;;;;;;4.40;1.00;;;;;;5034593;28;19909;-78
2023/01/28 10:00:48;;;;;;;;;;;4.40;1.00;;;;;;5016309;28;19913;-78
2023/01/28 10:03:32;;;;;;;;;;;4.30;1.00;;;;;;5034061;28;19913;-78
2023/01/28 10:06:25;;;;;;;;;;;4.10;1.00;;;;;;5034574;28;19917;-79
2023/01/28 10:08:56;;;;;;;;;;;4.10;1.00;;;;;;5034310;28;19913;-78
2023/01/28 10:11:55;;;;;;;;;;;4.10;1.00;;;;;;5031112;28;20295;-86
2023/01/28 10:14:55;;;;;;;;;;;4.10;1.00;;;;;;5016616;28;19917;-85
2023/01/28 10:20:44;;;;;;;;;;;4.10;1.00;;;;;;5024767;28;20387;-86
2023/01/28 10:23:12;;;;;;;;;;;4.20;1.00;;;;;;5034752;28;19967;-87
2023/01/28 10:32:14;;;;;;;;;;;4.20;1.00;;;;;;5034517;28;19915;-87
2023/01/28 10:34:51;;;;;;;;;;;4.20;1.00;;;;;;5034099;28;19921;-83
2023/01/28 10:40:20;;;;;;;;;;;4.30;1.00;;;;;;5014789;28;19987;-78
2023/01/28 10:42:45;;;;;;;;;;;4.30;1.00;;;;;;5034044;28;19913;-76
2023/01/28 10:45:13;;;;;;;;;;;4.30;1.00;;;;;;5033281;28;19925;-81
2023/01/28 10:48:15;;;;;;;;;;;4.30;1.00;;;;;;5033721;28;20331;-79
2023/01/28 10:50:48;;;;;;;;;;;4.40;1.00;;;;;;5033599;28;19909;-78
2023/01/28 10:53:46;;;;;;;;;;;4.40;1.00;;;;;;5025911;28;19913;-81
2023/01/28 10:56:31;;;;;;;;;;;4.40;1.00;;;;;;4937882;29;19942;-83
2023/01/28 11:02:28;;;;;;;;;;;4.40;1.00;;;;;;4953163;28;19922;-82
2023/01/28 11:05:07;;;;;;;;;;;4.40;1.00;;;;;;4951144;29;19918;-81
2023/01/28 11:07:32;;;;;;;;;;;4.40;1.00;;;;;;4950548;29;19915;-83
2023/01/28 11:10:28;;;;;;;;;;;4.40;1.00;;;;;;4952245;29;20018;-82
2023/01/28 11:12:57;;;;;;;;;;;4.30;1.00;;;;;;4895856;29;19967;-83
2023/01/28 11:15:26;;;;;;;;;;;4.30;1.00;;;;;;4896361;29;19916;-82
2023/01/28 11:18:13;;;;;;;;;;;4.40;1.00;;;;;;4896825;29;19919;-83
2023/01/28 11:20:48;;;;;;;;;;;4.40;1.00;;;;;;4895932;29;19915;-82
2023/01/28 11:23:42;;;;;;;;;;;4.30;1.00;;;;;;4896508;29;19916;-83
2023/01/28 11:26:16;;;;;;;;;;;4.30;1.00;;;;;;4815414;29;19952;-80
2023/01/28 11:28:44;;;;;;;;;;;4.20;1.00;;;;;;4822377;29;19954;-79
2023/01/28 11:34:24;;;;;;;;;;;4.20;1.00;;;;;;4858866;29;19960;-82
2023/01/28 11:37:16;;;;;;;;;;;4.10;1.00;;;;;;4858979;29;20403;-83
2023/01/28 11:40:10;;;;;;;;;;;4.20;1.00;;;;;;4857943;29;19917;-80
2023/01/28 11:43:02;;;;;;;;;;;4.30;1.00;;;;;;4804219;29;20011;-82
2023/01/28 11:45:49;;;;;;;;;;;4.30;1.00;;;;;;4814778;29;19917;-81
2023/01/28 11:48:29;;;;;;;;;;;4.30;1.00;;;;;;4807717;29;19924;-83
2023/01/28 11:51:08;;;;;;;;;;;4.30;1.00;;;;;;4858841;29;19916;-80
2023/01/28 11:53:55;;;;;;;;;;;4.30;1.00;;;;;;4848445;29;20295;-84
2023/01/28 11:56:31;;;;;;;;;;;4.40;1.00;;;;;;4858893;29;19924;-82
2023/01/28 11:59:08;;;;;;;;;;;4.50;1.00;;;;;;4868047;29;19959;-78
2023/01/28 12:01:53;;;;;;;;;;;4.60;1.00;;;;;;4865449;29;20311;-77
2023/01/28 12:04:22;;;;;;;;;;;4.60;1.00;;;;;;4940867;29;20274;-80
2023/01/28 12:07:01;;;;;;;;;;;4.60;1.00;;;;;;4941369;28;20326;-79
2023/01/28 12:09:41;;;;;;;;;;;4.60;1.00;;;;;;4953095;29;20314;-79
2023/01/28 12:12:44;;;;;;;;;;;4.50;1.00;;;;;;4952183;29;19956;-78
2023/01/28 12:15:14;;;;;;;;;;;4.50;1.00;;;;;;4952818;29;20813;-79
2023/01/28 12:18:14;;;;;;;;;;;4.40;1.00;;;;;;4952624;29;20334;-79
2023/01/28 12:20:39;;;;;;;;;;;4.40;1.00;;;;;;5004812;28;19916;-82
2023/01/28 12:23:25;;;;;;;;;;;4.40;1.00;;;;;;5033770;28;19909;-81
2023/01/28 12:26:02;;;;;;;;;;;4.40;1.00;;;;;;5036003;28;20000;-81
2023/01/28 12:31:53;;;;;;;;;;;4.40;1.00;;;;;;5035898;28;19916;-80
2023/01/28 12:34:36;;;;;;;;;;;4.30;1.00;;;;;;5035800;28;19910;-79
2023/01/28 12:37:26;;;;;;;;;;;4.20;1.00;;;;;;5036026;28;19998;-79
2023/01/28 12:40:00;;;;;;;;;;;4.10;1.00;;;;;;5036031;28;19913;-82
2023/01/28 12:42:34;;;;;;;;;;;4.00;1.00;;;;;;5018562;28;19909;-83
2023/01/28 12:45:16;;;;;;;;;;;4.00;1.00;;;;;;5036336;28;20396;-84
2023/01/28 12:47:48;;;;;;;;;;;4.00;1.00;;;;;;5035909;28;20318;-79
2023/01/28 12:50:38;;;;;;;;;;;4.10;1.00;;;;;;5033830;28;19910;-84
2023/01/28 12:53:22;;;;;;;;;;;4.00;1.00;;;;;;5028896;28;19909;-84
2023/01/28 12:58:55;;;;;;;;;;;4.00;1.00;;;;;;5036366;28;19916;-84
2023/01/28 13:04:58;;;;;;;;;;;4.20;1.00;;;;;;5028086;28;20557;-84
2023/01/28 13:07:31;;;;;;;;;;;4.20;1.00;;;;;;4954680;29;20422;-84
2023/01/28 13:10:26;;;;;;;;;;;4.20;1.00;;;;;;4956346;29;19915;-84
2023/01/28 13:12:56;;;;;;;;;;;4.20;1.00;;;;;;4940243;29;19961;-75
2023/01/28 13:15:22;;;;;;;;;;;4.20;1.00;;;;;;4955634;29;20003;-76
2023/01/28 13:17:58;;;;;;;;;;;4.20;1.00;;;;;;4955557;29;19914;-75
2023/01/28 13:20:35;;;;;;;;;;;4.20;1.00;;;;;;4955515;29;19910;-75
2023/01/28 13:23:03;;;;;;;;;;;4.20;1.00;;;;;;4955154;29;19917;-76
2023/01/28 13:25:44;;;;;;;;;;;4.20;1.00;;;;;;4955306;29;20471;-75
2023/01/28 13:28:24;;;;;;;;;;;4.20;1.00;;;;;;4955546;29;20001;-75
2023/01/28 13:30:52;;;;;;;;;;;4.30;1.00;;;;;;4939084;29;20274;-75
2023/01/28 13:33:33;;;;;;;;;;;4.20;1.00;;;;;;4939136;29;19946;-75
2023/01/28 13:36:01;;;;;;;;;;;4.20;1.00;;;;;;4954514;28;19922;-75
2023/01/28 13:38:28;;;;;;;;;;;4.20;1.00;;;;;;4954937;29;20338;-75
2023/01/28 13:41:05;;;;;;;;;;;4.30;1.00;;;;;;4947647;29;19915;-75
2023/01/28 13:43:36;;;;;;;;;;;4.20;1.00;;;;;;4995710;28;19960;-77
2023/01/28 13:46:12;;;;;;;;;;;4.20;1.00;;;;;;5017838;28;19917;-76
2023/01/28 13:48:51;;;;;;;;;;;4.20;1.00;;;;;;5031110;28;19909;-77
2023/01/28 13:51:20;;;;;;;;;;;4.00;1.00;;;;;;5017880;28;19920;-76
2023/01/28 13:54:14;;;;;;;;;;;4.00;1.00;;;;;;5029666;28;19909;-76
2023/01/28 13:56:50;;;;;;;;;;;4.10;1.00;;;;;;5017128;28;19913;-80
2023/01/28 14:11:38;;;;;;;;;;;4.10;1.00;;;;;;5028918;28;19932;-91
2023/01/28 14:14:22;;;;;;;;;;;4.00;1.00;;;;;;5017099;28;20015;-79
2023/01/28 14:16:54;;;;;;;;;;;4.00;1.00;;;;;;5013508;28;19918;-79
2023/01/28 14:19:28;;;;;;;;;;;4.00;1.00;;;;;;5024912;28;20288;-80
2023/01/28 14:22:08;;;;;;;;;;;3.90;1.00;;;;;;5034239;28;19919;-81
2023/01/28 14:24:36;;;;;;;;;;;3.90;1.00;;;;;;4996997;28;20285;-81
2023/01/28 14:30:27;;;;;;;;;;;4.00;1.00;;;;;;5014445;28;20324;-81
2023/01/28 14:33:02;;;;;;;;;;;4.00;1.00;;;;;;5013301;28;19921;-78
2023/01/28 14:35:36;;;;;;;;;;;3.90;1.00;;;;;;5016181;28;19916;-79
2023/01/28 14:38:16;;;;;;;;;;;4.00;1.00;;;;;;5034163;28;19999;-79
2023/01/28 14:40:44;;;;;;;;;;;3.90;1.00;;;;;;5034205;28;20012;-79
2023/01/28 14:43:24;;;;;;;;;;;4.00;1.00;;;;;;5016876;28;20323;-79
2023/01/28 14:46:02;;;;;;;;;;;3.90;1.00;;;;;;5033723;28;19913;-81
2023/01/28 14:48:42;;;;;;;;;;;3.80;1.00;;;;;;5012575;28;20288;-79
2023/01/28 14:51:44;;;;;;;;;;;3.70;1.00;;;;;;5014426;28;19916;-79
2023/01/28 14:54:20;;;;;;;;;;;3.80;1.00;;;;;;5033894;28;19909;-76
2023/01/28 14:57:08;;;;;;;;;;;3.80;1.00;;;;;;5025508;28;20322;-77
2023/01/28 14:59:47;;;;;;;;;;;3.80;1.00;;;;;;5026261;28;19936;-79
2023/01/28 15:02:19;;;;;;;;;;;3.80;1.00;;;;;;5033151;28;20260;-79
2023/01/28 15:05:16;;;;;;;;;;;3.80;1.00;;;;;;5033699;28;19966;-77
2023/01/28 15:07:45;;;;;;;;;;;3.90;1.00;;;;;;4952459;29;19988;-78
2023/01/28 15:10:16;;;;;;;;;;;3.90;1.00;;;;;;4953553;29;19911;-78
2023/01/28 15:15:50;;;;;;;;;;;3.80;1.00;;;;;;4953374;29;20014;-84
2023/01/28 15:18:24;;;;;;;;;;;3.70;1.00;;;;;;4938127;29;20293;-84
2023/01/28 15:26:55;;;;;;;;;;;3.70;1.00;;;;;;4953005;29;19950;-82
2023/01/28 15:29:25;;;;;;;;;;;3.60;1.00;;;;;;4953582;29;19914;-76
2023/01/28 15:32:14;;;;;;;;;;;3.50;1.00;;;;;;4937223;29;19911;-76
2023/01/28 15:34:44;;;;;;;;;;;3.50;1.00;;;;;;4936930;29;19919;-76
2023/01/28 15:37:10;;;;;;;;;;;3.40;1.00;;;;;;4953003;29;19914;-78
2023/01/28 15:39:56;;;;;;;;;;;3.40;1.00;;;;;;4941741;29;19915;-82
2023/01/28 15:42:28;;;;;;;;;;;3.40;1.00;;;;;;4934276;29;19966;-81
2023/01/28 15:45:28;;;;;;;;;;;3.40;1.00;;;;;;4995188;28;19917;-86
2023/01/28 15:48:04;;;;;;;;;;;3.40;1.00;;;;;;4932995;29;19915;-85
2023/01/28 15:50:50;;;;;;;;;;;3.50;1.00;;;;;;4923894;29;20416;-85
2023/01/28 15:56:32;;;;;;;;;;;3.50;1.00;;;;;;4941347;29;19981;-80
2023/01/28 15:59:34;;;;;;;;;;;3.50;1.00;;;;;;4940430;29;19942;-79
2023/01/28 16:02:28;;;;;;;;;;;3.40;1.00;;;;;;4912229;29;19915;-79
2023/01/28 16:08:06;;;;;;;;;;;3.40;1.00;;;;;;4908897;29;20021;-79
2023/01/28 16:10:50;;;;;;;;;;;3.30;1.00;;;;;;4900247;29;20483;-79
2023/01/28 16:16:38;;;;;;;;;;;3.30;1.00;;;;;;4913467;29;19962;-82
2023/01/28 16:19:18;;;;;;;;;;;3.20;1.00;;;;;;4918412;29;19911;-82
2023/01/28 16:21:56;;;;;;;;;;;3.10;1.00;;;;;;4897203;29;19944;-82
2023/01/28 16:24:27;;;;;;;;;;;3.10;1.00;;;;;;4948541;28;19918;-82
2023/01/28 16:26:57;;;;;;;;;;;3.10;1.00;;;;;;4975326;28;19915;-83
2023/01/28 16:29:50;;;;;;;;;;;3.00;1.00;;;;;;4962191;28;19922;-79
2023/01/28 16:32:32;;;;;;;;;;;3.10;1.00;;;;;;4975440;28;20381;-79
2023/01/28 16:35:28;;;;;;;;;;;3.00;1.00;;;;;;4979709;28;19980;-80
2023/01/28 16:38:02;;;;;;;;;;;3.00;1.00;;;;;;4956013;28;19933;-80
2023/01/28 16:43:56;;;;;;;;;;;3.10;1.00;;;;;;4954812;28;19920;-80
2023/01/28 16:46:50;;;;;;;;;;;3.00;1.00;;;;;;4955833;29;19998;-80
2023/01/28 16:49:15;;;;;;;;;;;3.00;1.00;;;;;;4955600;29;20455;-79
2023/01/28 16:51:44;;;;;;;;;;;2.90;1.00;;;;;;4954534;29;19922;-79
2023/01/28 16:54:15;;;;;;;;;;;3.00;1.00;;;;;;4955841;29;19910;-79
2023/01/28 16:56:44;;;;;;;;;;;3.00;1.00;;;;;;4955979;29;19922;-78
2023/01/28 16:59:26;;;;;;;;;;;2.90;1.00;;;;;;4951263;29;19911;-84
2023/01/28 17:02:14;;;;;;;;;;;3.00;1.00;;;;;;4950297;29;19910;-82
2023/01/28 17:07:42;;;;;;;;;;;2.90;1.00;;;;;;4955951;29;19917;-85
2023/01/28 17:10:08;;;;;;;;;;;2.90;1.00;;;;;;4936527;29;20001;-85
2023/01/28 17:12:34;;;;;;;;;;;2.90;1.00;;;;;;4944728;29;19975;-85
2023/01/28 17:15:00;;;;;;;;;;;2.90;1.00;;;;;;5019262;28;20352;-86
2023/01/28 17:18:02;;;;;;;;;;;3.00;1.00;;;;;;5034610;28;19909;-85
2023/01/28 17:23:38;;;;;;;;;;;3.00;1.00;;;;;;5035214;28;19917;-83
2023/01/28 17:26:14;;;;;;;;;;;2.90;1.00;;;;;;5014877;28;19947;-82
2023/01/28 17:31:44;;;;;;;;;;;2.80;1.00;;;;;;5022382;28;20462;-80
2023/01/28 17:34:20;;;;;;;;;;;2.80;1.00;;;;;;5035384;28;19909;-81
2023/01/28 17:36:45;;;;;;;;;;;2.80;1.00;;;;;;5023301;28;19956;-81
2023/01/28 17:39:32;;;;;;;;;;;2.80;1.00;;;;;;5035362;28;19932;-79
2023/01/28 17:42:26;;;;;;;;;;;2.70;1.00;;;;;;5006903;28;19914;-77
2023/01/28 17:44:56;;;;;;;;;;;2.80;1.00;;;;;;4998494;28;19914;-77
2023/01/28 17:47:44;;;;;;;;;;;2.80;1.00;;;;;;5029722;28;19909;-77
2023/01/28 17:59:20;;;;;;;;;;;2.50;1.00;;;;;;5034518;28;19935;-81
2023/01/28 18:01:56;;;;;;;;;;;2.50;1.00;;;;;;5024107;28;19909;-82
2023/01/28 18:07:25;;;;;;;;;;;2.50;1.00;;;;;;5034576;28;19967;-84
2023/01/28 18:09:56;;;;;;;;;;;2.50;1.00;;;;;;5032395;28;19913;-82
2023/01/28 18:12:50;;;;;;;;;;;2.50;1.00;;;;;;5033892;28;19910;-81
2023/01/28 18:15:32;;;;;;;;;;;2.40;1.00;;;;;;5017368;28;19921;-81
2023/01/28 18:18:20;;;;;;;;;;;2.40;1.00;;;;;;5034664;28;19936;-79
2023/01/28 18:21:05;;;;;;;;;;;2.40;1.00;;;;;;5023756;28;19913;-81
2023/01/28 18:23:32;;;;;;;;;;;2.30;1.00;;;;;;5033548;28;19967;-80
2023/01/28 18:25:59;;;;;;;;;;;2.30;1.00;;;;;;5029297;28;19917;-80
2023/01/28 18:28:44;;;;;;;;;;;2.30;1.00;;;;;;5015176;28;19917;-79